sensor_id;sensor_type;location;lat;lon;timestamp;P1;durP1;ratioP1;P2;durP2;ratioP2
9007;SDS011;62813;51.424;6.762;2022-10-04T00:02:48;10.50;;;4.53;;
9007;SDS011;62813;51.424;6.762;2022-10-04T00:05:16;9.20;;;4.10;;
9007;SDS011;62813;51.424;6.762;2022-10-04T00:07:45;6.37;;;4.00;;
9007;SDS011;62813;51.424;6.762;2022-10-04T00:10:20;10.00;;;4.63;;
9007;SDS011;62813;51.424;6.762;2022-10-04T00:12:51;8.57;;;4.30;;
9007;SDS011;62813;51.424;6.762;2022-10-04T00:15:22;11.53;;;4.20;;
9007;SDS011;62813;51.424;6.762;2022-10-04T00:18:04;10.67;;;4.03;;
9007;SDS011;62813;51.424;6.762;2022-10-04T00:28:26;6.60;;;3.83;;
9007;SDS011;62813;51.424;6.762;2022-10-04T00:31:07;7.90;;;4.13;;
9007;SDS011;62813;51.424;6.762;2022-10-04T00:33:38;7.77;;;4.13;;
9007;SDS011;62813;51.424;6.762;2022-10-04T00:41:27;9.70;;;4.63;;
9007;SDS011;62813;51.424;6.762;2022-10-04T00:43:54;11.27;;;4.30;;
9007;SDS011;62813;51.424;6.762;2022-10-04T00:46:22;7.30;;;4.00;;
9007;SDS011;62813;51.424;6.762;2022-10-04T00:48:52;8.67;;;4.30;;
9007;SDS011;62813;51.424;6.762;2022-10-04T00:56:42;8.53;;;4.23;;
9007;SDS011;62813;51.424;6.762;2022-10-04T00:59:15;11.63;;;4.20;;
9007;SDS011;62813;51.424;6.762;2022-10-04T01:01:46;10.77;;;4.63;;
9007;SDS011;62813;51.424;6.762;2022-10-04T01:04:25;8.83;;;4.40;;
9007;SDS011;62813;51.424;6.762;2022-10-04T01:06:52;5.87;;;3.80;;
9007;SDS011;62813;51.424;6.762;2022-10-04T01:09:19;10.47;;;4.43;;
9007;SDS011;62813;51.424;6.762;2022-10-04T01:11:49;7.60;;;3.90;;
9007;SDS011;62813;51.424;6.762;2022-10-04T01:17:16;7.27;;;4.07;;
9007;SDS011;62813;51.424;6.762;2022-10-04T01:19:52;7.67;;;4.03;;
9007;SDS011;62813;51.424;6.762;2022-10-04T01:22:35;8.73;;;4.83;;
9007;SDS011;62813;51.424;6.762;2022-10-04T01:25:02;7.37;;;3.77;;
9007;SDS011;62813;51.424;6.762;2022-10-04T01:29:55;8.90;;;4.10;;
9007;SDS011;62813;51.424;6.762;2022-10-04T01:32:22;11.07;;;4.80;;
9007;SDS011;62813;51.424;6.762;2022-10-04T01:34:48;7.47;;;4.40;;
9007;SDS011;62813;51.424;6.762;2022-10-04T01:37:15;6.90;;;4.80;;
9007;SDS011;62813;51.424;6.762;2022-10-04T01:39:41;7.97;;;4.30;;
9007;SDS011;62813;51.424;6.762;2022-10-04T01:42:10;8.20;;;4.70;;
9007;SDS011;62813;51.424;6.762;2022-10-04T01:44:45;6.73;;;4.07;;
9007;SDS011;62813;51.424;6.762;2022-10-04T01:47:14;8.13;;;4.50;;
9007;SDS011;62813;51.424;6.762;2022-10-04T01:49:42;12.53;;;4.40;;
9007;SDS011;62813;51.424;6.762;2022-10-04T01:55:13;9.10;;;4.37;;
9007;SDS011;62813;51.424;6.762;2022-10-04T01:57:42;13.50;;;5.10;;
9007;SDS011;62813;51.424;6.762;2022-10-04T02:00:11;7.13;;;4.37;;
9007;SDS011;62813;51.424;6.762;2022-10-04T02:02:48;7.50;;;4.90;;
9007;SDS011;62813;51.424;6.762;2022-10-04T02:05:35;8.10;;;4.97;;
9007;SDS011;62813;51.424;6.762;2022-10-04T02:08:10;8.87;;;4.70;;
9007;SDS011;62813;51.424;6.762;2022-10-04T02:10:38;6.57;;;4.67;;
9007;SDS011;62813;51.424;6.762;2022-10-04T02:13:11;10.37;;;4.90;;
9007;SDS011;62813;51.424;6.762;2022-10-04T02:15:39;10.13;;;4.70;;
9007;SDS011;62813;51.424;6.762;2022-10-04T02:18:10;8.90;;;5.13;;
9007;SDS011;62813;51.424;6.762;2022-10-04T02:20:38;9.53;;;4.97;;
9007;SDS011;62813;51.424;6.762;2022-10-04T02:23:05;12.83;;;4.87;;
9007;SDS011;62813;51.424;6.762;2022-10-04T02:25:32;9.60;;;5.10;;
9007;SDS011;62813;51.424;6.762;2022-10-04T02:28:01;10.13;;;5.03;;
9007;SDS011;62813;51.424;6.762;2022-10-04T02:30:27;12.23;;;4.67;;
9007;SDS011;62813;51.424;6.762;2022-10-04T02:32:55;9.10;;;4.80;;
9007;SDS011;62813;51.424;6.762;2022-10-04T02:35:42;6.47;;;4.23;;
9007;SDS011;62813;51.424;6.762;2022-10-04T02:38:12;9.73;;;5.10;;
9007;SDS011;62813;51.424;6.762;2022-10-04T02:40:45;8.27;;;4.60;;
9007;SDS011;62813;51.424;6.762;2022-10-04T02:43:18;12.23;;;5.00;;
9007;SDS011;62813;51.424;6.762;2022-10-04T02:45:50;10.47;;;5.17;;
9007;SDS011;62813;51.424;6.762;2022-10-04T02:48:29;7.87;;;4.23;;
9007;SDS011;62813;51.424;6.762;2022-10-04T02:50:59;11.13;;;4.80;;
9007;SDS011;62813;51.424;6.762;2022-10-04T02:53:32;13.67;;;4.93;;
9007;SDS011;62813;51.424;6.762;2022-10-04T02:56:00;13.97;;;4.70;;
9007;SDS011;62813;51.424;6.762;2022-10-04T02:58:27;9.17;;;4.97;;
9007;SDS011;62813;51.424;6.762;2022-10-04T03:00:55;12.80;;;4.93;;
9007;SDS011;62813;51.424;6.762;2022-10-04T03:05:55;10.53;;;5.17;;
9007;SDS011;62813;51.424;6.762;2022-10-04T03:08:23;11.03;;;4.60;;
9007;SDS011;62813;51.424;6.762;2022-10-04T03:10:49;10.50;;;4.73;;
9007;SDS011;62813;51.424;6.762;2022-10-04T03:13:16;8.33;;;4.47;;
9007;SDS011;62813;51.424;6.762;2022-10-04T03:15:45;8.27;;;4.70;;
9007;SDS011;62813;51.424;6.762;2022-10-04T03:18:14;8.90;;;4.90;;
9007;SDS011;62813;51.424;6.762;2022-10-04T03:20:41;11.97;;;5.43;;
9007;SDS011;62813;51.424;6.762;2022-10-04T03:23:08;7.63;;;5.00;;
9007;SDS011;62813;51.424;6.762;2022-10-04T03:28:21;10.20;;;5.00;;
9007;SDS011;62813;51.424;6.762;2022-10-04T03:30:48;9.60;;;4.77;;
9007;SDS011;62813;51.424;6.762;2022-10-04T03:33:16;13.47;;;5.83;;
9007;SDS011;62813;51.424;6.762;2022-10-04T03:35:43;8.77;;;4.77;;
9007;SDS011;62813;51.424;6.762;2022-10-04T03:38:11;11.27;;;5.00;;
9007;SDS011;62813;51.424;6.762;2022-10-04T03:40:37;7.67;;;5.17;;
9007;SDS011;62813;51.424;6.762;2022-10-04T03:43:05;11.83;;;5.00;;
9007;SDS011;62813;51.424;6.762;2022-10-04T03:45:32;8.33;;;4.87;;
9007;SDS011;62813;51.424;6.762;2022-10-04T03:48:02;11.27;;;5.10;;
9007;SDS011;62813;51.424;6.762;2022-10-04T03:50:34;11.67;;;5.10;;
9007;SDS011;62813;51.424;6.762;2022-10-04T03:53:06;9.13;;;5.00;;
9007;SDS011;62813;51.424;6.762;2022-10-04T03:55:35;12.87;;;5.00;;
9007;SDS011;62813;51.424;6.762;2022-10-04T03:58:03;9.13;;;4.90;;
9007;SDS011;62813;51.424;6.762;2022-10-04T04:00:32;8.07;;;4.77;;
9007;SDS011;62813;51.424;6.762;2022-10-04T04:03:00;8.57;;;5.33;;
9007;SDS011;62813;51.424;6.762;2022-10-04T04:05:30;8.20;;;5.00;;
9007;SDS011;62813;51.424;6.762;2022-10-04T04:08:06;10.83;;;5.27;;
9007;SDS011;62813;51.424;6.762;2022-10-04T04:10:38;8.17;;;5.10;;
9007;SDS011;62813;51.424;6.762;2022-10-04T04:15:36;11.07;;;5.00;;
9007;SDS011;62813;51.424;6.762;2022-10-04T04:18:09;8.97;;;5.43;;
9007;SDS011;62813;51.424;6.762;2022-10-04T04:20:38;10.53;;;4.50;;
9007;SDS011;62813;51.424;6.762;2022-10-04T04:25:38;9.23;;;5.10;;
9007;SDS011;62813;51.424;6.762;2022-10-04T04:28:28;11.73;;;5.20;;
9007;SDS011;62813;51.424;6.762;2022-10-04T04:31:39;8.27;;;5.67;;
9007;SDS011;62813;51.424;6.762;2022-10-04T04:33:46;10.77;;;5.57;;
9007;SDS011;62813;51.424;6.762;2022-10-04T04:36:14;9.90;;;5.30;;
9007;SDS011;62813;51.424;6.762;2022-10-04T04:38:42;10.93;;;5.53;;
9007;SDS011;62813;51.424;6.762;2022-10-04T04:41:28;11.20;;;5.27;;
9007;SDS011;62813;51.424;6.762;2022-10-04T04:43:56;10.50;;;5.20;;
9007;SDS011;62813;51.424;6.762;2022-10-04T04:46:23;12.50;;;5.83;;
9007;SDS011;62813;51.424;6.762;2022-10-04T04:49:01;7.97;;;5.50;;
9007;SDS011;62813;51.424;6.762;2022-10-04T04:51:28;9.90;;;5.47;;
9007;SDS011;62813;51.424;6.762;2022-10-04T04:53:56;9.10;;;5.10;;
9007;SDS011;62813;51.424;6.762;2022-10-04T04:56:24;9.67;;;5.53;;
9007;SDS011;62813;51.424;6.762;2022-10-04T04:58:52;9.07;;;5.47;;
9007;SDS011;62813;51.424;6.762;2022-10-04T05:01:26;10.80;;;5.40;;
9007;SDS011;62813;51.424;6.762;2022-10-04T05:06:29;12.40;;;5.30;;
9007;SDS011;62813;51.424;6.762;2022-10-04T05:08:56;11.47;;;5.70;;
9007;SDS011;62813;51.424;6.762;2022-10-04T05:11:24;11.07;;;6.30;;
9007;SDS011;62813;51.424;6.762;2022-10-04T05:13:58;9.90;;;5.23;;
9007;SDS011;62813;51.424;6.762;2022-10-04T05:16:29;12.03;;;5.80;;
9007;SDS011;62813;51.424;6.762;2022-10-04T05:18:59;10.73;;;5.37;;
9007;SDS011;62813;51.424;6.762;2022-10-04T05:21:28;12.03;;;6.00;;
9007;SDS011;62813;51.424;6.762;2022-10-04T05:23:58;9.27;;;6.03;;
9007;SDS011;62813;51.424;6.762;2022-10-04T05:26:40;10.13;;;5.60;;
9007;SDS011;62813;51.424;6.762;2022-10-04T05:29:09;11.40;;;5.73;;
9007;SDS011;62813;51.424;6.762;2022-10-04T05:31:52;8.57;;;5.47;;
9007;SDS011;62813;51.424;6.762;2022-10-04T05:34:22;11.03;;;6.13;;
9007;SDS011;62813;51.424;6.762;2022-10-04T05:44:28;12.43;;;5.70;;
9007;SDS011;62813;51.424;6.762;2022-10-04T05:46:58;11.23;;;6.10;;
9007;SDS011;62813;51.424;6.762;2022-10-04T05:49:25;12.07;;;6.13;;
9007;SDS011;62813;51.424;6.762;2022-10-04T05:54:21;11.00;;;6.60;;
9007;SDS011;62813;51.424;6.762;2022-10-04T06:22:40;9.80;;;5.27;;
9007;SDS011;62813;51.424;6.762;2022-10-04T06:25:10;10.83;;;5.47;;
9007;SDS011;62813;51.424;6.762;2022-10-04T06:27:53;11.93;;;5.30;;
9007;SDS011;62813;51.424;6.762;2022-10-04T06:30:23;10.83;;;6.03;;
9007;SDS011;62813;51.424;6.762;2022-10-04T06:38:16;9.00;;;5.73;;
9007;SDS011;62813;51.424;6.762;2022-10-04T06:43:25;7.43;;;5.40;;
9007;SDS011;62813;51.424;6.762;2022-10-04T07:01:34;10.83;;;5.77;;
9007;SDS011;62813;51.424;6.762;2022-10-04T07:04:09;10.03;;;5.97;;
9007;SDS011;62813;51.424;6.762;2022-10-04T07:07:02;10.07;;;5.90;;
9007;SDS011;62813;51.424;6.762;2022-10-04T07:09:56;9.30;;;5.67;;
9007;SDS011;62813;51.424;6.762;2022-10-04T07:12:25;10.10;;;6.10;;
9007;SDS011;62813;51.424;6.762;2022-10-04T07:14:52;8.70;;;5.80;;
9007;SDS011;62813;51.424;6.762;2022-10-04T07:17:23;8.20;;;5.67;;
9007;SDS011;62813;51.424;6.762;2022-10-04T07:19:52;10.63;;;5.77;;
9007;SDS011;62813;51.424;6.762;2022-10-04T07:30:59;7.80;;;5.40;;
9007;SDS011;62813;51.424;6.762;2022-10-04T07:33:30;8.43;;;5.13;;
9007;SDS011;62813;51.424;6.762;2022-10-04T07:36:14;7.43;;;5.37;;
9007;SDS011;62813;51.424;6.762;2022-10-04T07:38:51;9.63;;;5.07;;
9007;SDS011;62813;51.424;6.762;2022-10-04T07:41:38;10.73;;;4.83;;
9007;SDS011;62813;51.424;6.762;2022-10-04T07:49:15;9.87;;;5.20;;
9007;SDS011;62813;51.424;6.762;2022-10-04T07:54:40;8.20;;;4.63;;
9007;SDS011;62813;51.424;6.762;2022-10-04T08:07:54;13.60;;;6.33;;
9007;SDS011;62813;51.424;6.762;2022-10-04T08:10:28;8.43;;;4.83;;
9007;SDS011;62813;51.424;6.762;2022-10-04T08:13:02;8.13;;;5.00;;
9007;SDS011;62813;51.424;6.762;2022-10-04T08:20:53;8.77;;;4.97;;
9007;SDS011;62813;51.424;6.762;2022-10-04T08:37:16;7.47;;;4.07;;
9007;SDS011;62813;51.424;6.762;2022-10-04T09:07:56;6.47;;;3.73;;
9007;SDS011;62813;51.424;6.762;2022-10-04T09:12:59;7.23;;;4.10;;
9007;SDS011;62813;51.424;6.762;2022-10-04T09:18:21;6.83;;;4.13;;
9007;SDS011;62813;51.424;6.762;2022-10-04T09:20:56;6.87;;;3.63;;
9007;SDS011;62813;51.424;6.762;2022-10-04T09:46:46;8.47;;;4.13;;
9007;SDS011;62813;51.424;6.762;2022-10-04T09:54:46;6.40;;;3.60;;
9007;SDS011;62813;51.424;6.762;2022-10-04T10:00:05;8.50;;;4.33;;
9007;SDS011;62813;51.424;6.762;2022-10-04T10:10:37;6.97;;;3.87;;
9007;SDS011;62813;51.424;6.762;2022-10-04T10:13:53;10.23;;;3.87;;
9007;SDS011;62813;51.424;6.762;2022-10-04T10:26:43;7.10;;;4.17;;
9007;SDS011;62813;51.424;6.762;2022-10-04T10:31:58;7.40;;;3.97;;
9007;SDS011;62813;51.424;6.762;2022-10-04T10:37:16;7.47;;;4.30;;
9007;SDS011;62813;51.424;6.762;2022-10-04T10:42:53;7.53;;;4.20;;
9007;SDS011;62813;51.424;6.762;2022-10-04T10:45:40;6.13;;;4.00;;
9007;SDS011;62813;51.424;6.762;2022-10-04T11:06:39;7.67;;;4.00;;
9007;SDS011;62813;51.424;6.762;2022-10-04T11:30:20;10.27;;;4.00;;
9007;SDS011;62813;51.424;6.762;2022-10-04T11:45:51;5.40;;;3.33;;
9007;SDS011;62813;51.424;6.762;2022-10-04T11:58:48;7.70;;;3.27;;
9007;SDS011;62813;51.424;6.762;2022-10-04T12:21:59;5.00;;;2.93;;
9007;SDS011;62813;51.424;6.762;2022-10-04T12:24:46;11.33;;;3.03;;
9007;SDS011;62813;51.424;6.762;2022-10-04T12:33:05;5.77;;;3.80;;
9007;SDS011;62813;51.424;6.762;2022-10-04T12:40:28;7.20;;;4.00;;
9007;SDS011;62813;51.424;6.762;2022-10-04T13:04:22;5.60;;;3.97;;
9007;SDS011;62813;51.424;6.762;2022-10-04T13:09:19;8.40;;;4.07;;
9007;SDS011;62813;51.424;6.762;2022-10-04T13:12:10;6.50;;;4.00;;
9007;SDS011;62813;51.424;6.762;2022-10-04T13:17:24;10.73;;;4.30;;
9007;SDS011;62813;51.424;6.762;2022-10-04T13:20:17;4.83;;;4.03;;
9007;SDS011;62813;51.424;6.762;2022-10-04T13:22:58;11.07;;;4.60;;
9007;SDS011;62813;51.424;6.762;2022-10-04T13:28:05;6.33;;;3.63;;
9007;SDS011;62813;51.424;6.762;2022-10-04T13:41:18;7.77;;;3.70;;
9007;SDS011;62813;51.424;6.762;2022-10-04T13:58:25;7.90;;;3.70;;
9007;SDS011;62813;51.424;6.762;2022-10-04T14:03:55;11.67;;;3.90;;
9007;SDS011;62813;51.424;6.762;2022-10-04T14:06:29;10.73;;;4.17;;
9007;SDS011;62813;51.424;6.762;2022-10-04T14:11:41;6.30;;;3.77;;
9007;SDS011;62813;51.424;6.762;2022-10-04T14:14:39;9.50;;;3.87;;
9007;SDS011;62813;51.424;6.762;2022-10-04T14:19:46;6.90;;;4.33;;
9007;SDS011;62813;51.424;6.762;2022-10-04T14:37:46;5.33;;;3.60;;
9007;SDS011;62813;51.424;6.762;2022-10-04T14:40:35;10.93;;;3.90;;
9007;SDS011;62813;51.424;6.762;2022-10-04T14:49:12;5.10;;;2.83;;
9007;SDS011;62813;51.424;6.762;2022-10-04T15:02:12;5.73;;;2.80;;
9007;SDS011;62813;51.424;6.762;2022-10-04T15:07:18;4.83;;;2.80;;
9007;SDS011;62813;51.424;6.762;2022-10-04T15:10:21;5.90;;;2.87;;
9007;SDS011;62813;51.424;6.762;2022-10-04T15:15:55;5.20;;;2.70;;
9007;SDS011;62813;51.424;6.762;2022-10-04T15:29:21;5.47;;;2.93;;
9007;SDS011;62813;51.424;6.762;2022-10-04T15:32:26;4.33;;;2.33;;
9007;SDS011;62813;51.424;6.762;2022-10-04T15:34:46;7.77;;;2.60;;
9007;SDS011;62813;51.424;6.762;2022-10-04T15:39:59;3.87;;;2.40;;
9007;SDS011;62813;51.424;6.762;2022-10-04T15:42:32;6.87;;;2.73;;
9007;SDS011;62813;51.424;6.762;2022-10-04T15:47:35;5.10;;;2.47;;
9007;SDS011;62813;51.424;6.762;2022-10-04T15:50:29;5.27;;;2.40;;
9007;SDS011;62813;51.424;6.762;2022-10-04T15:53:12;5.00;;;2.50;;
9007;SDS011;62813;51.424;6.762;2022-10-04T16:06:27;7.63;;;2.60;;
9007;SDS011;62813;51.424;6.762;2022-10-04T16:17:00;6.80;;;3.40;;
9007;SDS011;62813;51.424;6.762;2022-10-04T16:19:46;7.10;;;3.27;;
9007;SDS011;62813;51.424;6.762;2022-10-04T16:22:28;6.20;;;3.20;;
9007;SDS011;62813;51.424;6.762;2022-10-04T16:25:21;4.37;;;3.17;;
9007;SDS011;62813;51.424;6.762;2022-10-04T16:30:24;5.73;;;3.40;;
9007;SDS011;62813;51.424;6.762;2022-10-04T16:40:31;5.77;;;3.10;;
9007;SDS011;62813;51.424;6.762;2022-10-04T16:43:04;5.23;;;2.87;;
9007;SDS011;62813;51.424;6.762;2022-10-04T16:45:41;3.67;;;2.93;;
9007;SDS011;62813;51.424;6.762;2022-10-04T16:53:20;5.47;;;3.20;;
9007;SDS011;62813;51.424;6.762;2022-10-04T16:55:53;7.20;;;3.47;;
9007;SDS011;62813;51.424;6.762;2022-10-04T17:03:40;5.00;;;3.33;;
9007;SDS011;62813;51.424;6.762;2022-10-04T17:06:12;6.10;;;3.30;;
9007;SDS011;62813;51.424;6.762;2022-10-04T17:08:47;5.47;;;3.67;;
9007;SDS011;62813;51.424;6.762;2022-10-04T17:11:30;4.90;;;3.23;;
9007;SDS011;62813;51.424;6.762;2022-10-04T17:14:21;4.77;;;3.40;;
9007;SDS011;62813;51.424;6.762;2022-10-04T17:16:53;5.80;;;3.23;;
9007;SDS011;62813;51.424;6.762;2022-10-04T17:19:41;6.10;;;3.47;;
9007;SDS011;62813;51.424;6.762;2022-10-04T17:22:24;6.93;;;4.53;;
9007;SDS011;62813;51.424;6.762;2022-10-04T17:27:57;12.80;;;6.70;;
9007;SDS011;62813;51.424;6.762;2022-10-04T17:30:27;6.37;;;5.00;;
9007;SDS011;62813;51.424;6.762;2022-10-04T17:40:36;5.70;;;4.50;;
9007;SDS011;62813;51.424;6.762;2022-10-04T17:48:17;7.47;;;5.03;;
9007;SDS011;62813;51.424;6.762;2022-10-04T17:53:54;6.47;;;4.77;;
9007;SDS011;62813;51.424;6.762;2022-10-04T17:56:41;8.17;;;5.50;;
9007;SDS011;62813;51.424;6.762;2022-10-04T17:59:12;10.90;;;7.33;;
9007;SDS011;62813;51.424;6.762;2022-10-04T18:01:45;18.47;;;8.80;;
9007;SDS011;62813;51.424;6.762;2022-10-04T18:04:23;13.20;;;8.23;;
9007;SDS011;62813;51.424;6.762;2022-10-04T18:07:00;11.87;;;7.60;;
9007;SDS011;62813;51.424;6.762;2022-10-04T18:11:59;14.63;;;7.73;;
9007;SDS011;62813;51.424;6.762;2022-10-04T18:17:03;12.17;;;7.70;;
9007;SDS011;62813;51.424;6.762;2022-10-04T18:22:03;12.80;;;7.70;;
9007;SDS011;62813;51.424;6.762;2022-10-04T18:24:34;10.80;;;7.03;;
9007;SDS011;62813;51.424;6.762;2022-10-04T18:27:01;10.07;;;6.33;;
9007;SDS011;62813;51.424;6.762;2022-10-04T18:29:37;8.57;;;6.00;;
9007;SDS011;62813;51.424;6.762;2022-10-04T18:32:15;11.03;;;7.27;;
9007;SDS011;62813;51.424;6.762;2022-10-04T18:34:56;10.47;;;6.97;;
9007;SDS011;62813;51.424;6.762;2022-10-04T18:37:33;13.37;;;7.60;;
9007;SDS011;62813;51.424;6.762;2022-10-04T18:42:36;14.10;;;8.27;;
9007;SDS011;62813;51.424;6.762;2022-10-04T18:47:48;14.30;;;9.90;;
9007;SDS011;62813;51.424;6.762;2022-10-04T18:57:51;14.23;;;8.10;;
9007;SDS011;62813;51.424;6.762;2022-10-04T19:00:42;12.77;;;7.63;;
9007;SDS011;62813;51.424;6.762;2022-10-04T19:27:10;11.40;;;6.20;;
9007;SDS011;62813;51.424;6.762;2022-10-04T19:34:52;8.43;;;5.40;;
9007;SDS011;62813;51.424;6.762;2022-10-04T19:37:24;11.47;;;5.27;;
9007;SDS011;62813;51.424;6.762;2022-10-04T19:42:41;6.07;;;4.43;;
9007;SDS011;62813;51.424;6.762;2022-10-04T19:47:51;9.03;;;4.90;;
9007;SDS011;62813;51.424;6.762;2022-10-04T19:50:21;8.43;;;5.07;;
9007;SDS011;62813;51.424;6.762;2022-10-04T19:52:51;7.80;;;5.30;;
9007;SDS011;62813;51.424;6.762;2022-10-04T19:57:49;6.73;;;4.53;;
9007;SDS011;62813;51.424;6.762;2022-10-04T20:00:16;9.13;;;4.57;;
9007;SDS011;62813;51.424;6.762;2022-10-04T20:02:45;8.67;;;5.13;;
9007;SDS011;62813;51.424;6.762;2022-10-04T20:05:17;6.97;;;4.80;;
9007;SDS011;62813;51.424;6.762;2022-10-04T20:07:51;7.67;;;4.67;;
9007;SDS011;62813;51.424;6.762;2022-10-04T20:26:09;10.00;;;5.33;;
9007;SDS011;62813;51.424;6.762;2022-10-04T20:28:37;8.23;;;5.53;;
9007;SDS011;62813;51.424;6.762;2022-10-04T20:31:10;8.37;;;5.70;;
9007;SDS011;62813;51.424;6.762;2022-10-04T20:36:05;6.50;;;5.30;;
9007;SDS011;62813;51.424;6.762;2022-10-04T20:46:20;15.50;;;5.70;;
9007;SDS011;62813;51.424;6.762;2022-10-04T20:48:47;10.43;;;5.87;;
9007;SDS011;62813;51.424;6.762;2022-10-04T20:51:14;11.63;;;5.67;;
9007;SDS011;62813;51.424;6.762;2022-10-04T20:53:47;12.83;;;6.20;;
9007;SDS011;62813;51.424;6.762;2022-10-04T20:56:20;9.87;;;5.70;;
9007;SDS011;62813;51.424;6.762;2022-10-04T20:58:50;8.63;;;5.77;;
9007;SDS011;62813;51.424;6.762;2022-10-04T21:04:40;11.57;;;6.13;;
9007;SDS011;62813;51.424;6.762;2022-10-04T21:07:09;10.10;;;5.87;;
9007;SDS011;62813;51.424;6.762;2022-10-04T21:09:38;10.17;;;6.07;;
9007;SDS011;62813;51.424;6.762;2022-10-04T21:12:06;9.00;;;5.87;;
9007;SDS011;62813;51.424;6.762;2022-10-04T21:14:36;8.73;;;5.83;;
9007;SDS011;62813;51.424;6.762;2022-10-04T21:17:57;9.43;;;6.00;;
9007;SDS011;62813;51.424;6.762;2022-10-04T21:19:49;9.97;;;6.37;;
9007;SDS011;62813;51.424;6.762;2022-10-04T21:24:52;9.83;;;5.80;;
9007;SDS011;62813;51.424;6.762;2022-10-04T21:29:57;9.63;;;6.07;;
9007;SDS011;62813;51.424;6.762;2022-10-04T21:32:24;8.53;;;5.67;;
9007;SDS011;62813;51.424;6.762;2022-10-04T21:34:51;9.23;;;6.30;;
9007;SDS011;62813;51.424;6.762;2022-10-04T21:37:19;9.60;;;6.40;;
9007;SDS011;62813;51.424;6.762;2022-10-04T21:39:46;7.37;;;6.10;;
9007;SDS011;62813;51.424;6.762;2022-10-04T21:42:15;8.90;;;5.93;;
9007;SDS011;62813;51.424;6.762;2022-10-04T21:44:41;9.37;;;6.00;;
9007;SDS011;62813;51.424;6.762;2022-10-04T21:47:08;9.27;;;6.17;;
9007;SDS011;62813;51.424;6.762;2022-10-04T21:49:35;8.50;;;6.07;;
9007;SDS011;62813;51.424;6.762;2022-10-04T21:52:01;8.57;;;6.30;;
9007;SDS011;62813;51.424;6.762;2022-10-04T21:54:28;10.93;;;5.70;;
9007;SDS011;62813;51.424;6.762;2022-10-04T21:56:54;6.93;;;5.63;;
9007;SDS011;62813;51.424;6.762;2022-10-04T21:59:21;8.47;;;5.83;;
9007;SDS011;62813;51.424;6.762;2022-10-04T22:01:47;8.23;;;5.80;;
9007;SDS011;62813;51.424;6.762;2022-10-04T22:04:14;7.90;;;5.17;;
9007;SDS011;62813;51.424;6.762;2022-10-04T22:06:40;10.20;;;5.80;;
9007;SDS011;62813;51.424;6.762;2022-10-04T22:09:07;10.80;;;6.60;;
9007;SDS011;62813;51.424;6.762;2022-10-04T22:11:33;9.00;;;5.63;;
9007;SDS011;62813;51.424;6.762;2022-10-04T22:13:59;12.33;;;6.53;;
9007;SDS011;62813;51.424;6.762;2022-10-04T22:16:26;9.67;;;5.90;;
9007;SDS011;62813;51.424;6.762;2022-10-04T22:18:53;7.53;;;6.00;;
9007;SDS011;62813;51.424;6.762;2022-10-04T22:21:20;8.50;;;5.90;;
9007;SDS011;62813;51.424;6.762;2022-10-04T22:23:46;9.60;;;6.40;;
9007;SDS011;62813;51.424;6.762;2022-10-04T22:26:14;10.47;;;6.30;;
9007;SDS011;62813;51.424;6.762;2022-10-04T22:28:42;10.33;;;6.23;;
9007;SDS011;62813;51.424;6.762;2022-10-04T22:31:17;11.43;;;6.20;;
9007;SDS011;62813;51.424;6.762;2022-10-04T22:33:44;10.30;;;6.13;;
9007;SDS011;62813;51.424;6.762;2022-10-04T22:36:12;9.20;;;5.90;;
9007;SDS011;62813;51.424;6.762;2022-10-04T22:38:40;10.27;;;6.37;;
9007;SDS011;62813;51.424;6.762;2022-10-04T22:41:09;11.43;;;6.37;;
9007;SDS011;62813;51.424;6.762;2022-10-04T22:43:35;9.00;;;6.13;;
9007;SDS011;62813;51.424;6.762;2022-10-04T22:46:02;9.87;;;6.33;;
9007;SDS011;62813;51.424;6.762;2022-10-04T22:48:29;10.13;;;6.27;;
9007;SDS011;62813;51.424;6.762;2022-10-04T22:50:56;8.20;;;6.47;;
9007;SDS011;62813;51.424;6.762;2022-10-04T22:53:23;10.53;;;6.30;;
9007;SDS011;62813;51.424;6.762;2022-10-04T22:55:50;11.97;;;6.73;;
9007;SDS011;62813;51.424;6.762;2022-10-04T22:58:17;8.27;;;6.80;;
9007;SDS011;62813;51.424;6.762;2022-10-04T23:00:46;8.13;;;6.60;;
9007;SDS011;62813;51.424;6.762;2022-10-04T23:05:48;10.57;;;7.40;;
9007;SDS011;62813;51.424;6.762;2022-10-04T23:08:15;10.23;;;6.93;;
9007;SDS011;62813;51.424;6.762;2022-10-04T23:10:43;10.40;;;6.40;;
9007;SDS011;62813;51.424;6.762;2022-10-04T23:13:10;10.57;;;7.20;;
9007;SDS011;62813;51.424;6.762;2022-10-04T23:15:36;11.27;;;7.17;;
9007;SDS011;62813;51.424;6.762;2022-10-04T23:18:06;10.40;;;7.27;;
9007;SDS011;62813;51.424;6.762;2022-10-04T23:20:37;10.80;;;7.00;;
9007;SDS011;62813;51.424;6.762;2022-10-04T23:23:04;11.73;;;7.53;;
9007;SDS011;62813;51.424;6.762;2022-10-04T23:25:35;8.17;;;6.67;;
9007;SDS011;62813;51.424;6.762;2022-10-04T23:28:06;14.27;;;7.77;;
9007;SDS011;62813;51.424;6.762;2022-10-04T23:30:36;9.50;;;7.10;;
9007;SDS011;62813;51.424;6.762;2022-10-04T23:33:05;10.10;;;6.43;;
9007;SDS011;62813;51.424;6.762;2022-10-04T23:35:35;13.17;;;7.00;;
9007;SDS011;62813;51.424;6.762;2022-10-04T23:38:02;14.87;;;7.17;;
9007;SDS011;62813;51.424;6.762;2022-10-04T23:40:32;11.83;;;7.20;;
9007;SDS011;62813;51.424;6.762;2022-10-04T23:42:59;11.37;;;6.77;;
9007;SDS011;62813;51.424;6.762;2022-10-04T23:45:26;13.20;;;6.83;;
9007;SDS011;62813;51.424;6.762;2022-10-04T23:47:57;10.57;;;7.20;;
9007;SDS011;62813;51.424;6.762;2022-10-04T23:50:24;11.63;;;6.93;;
9007;SDS011;62813;51.424;6.762;2022-10-04T23:52:52;9.67;;;6.77;;
9007;SDS011;62813;51.424;6.762;2022-10-04T23:55:23;10.30;;;6.77;;
9007;SDS011;62813;51.424;6.762;2022-10-04T23:57:52;12.03;;;7.20;;
